馬祖北竿航空站 - ATIS

METAR RCMT 161100Z 04011KT 360V060 9999 FEW010 BKN020 BKN100 17/09 Q1016 NOSIG RMK A3001(S)=

站台狀態:Online
最後更新:2022-05-17 01:00:01